createdAt,value
2023-02-08T00:00:57.540Z,19.10
2023-02-08T00:03:25.053Z,23.25
2023-02-08T00:05:52.400Z,21.05
2023-02-08T00:08:20.216Z,22.55
2023-02-08T00:10:47.302Z,21.20
2023-02-08T00:13:14.302Z,26.85
2023-02-08T00:15:42.871Z,18.67
2023-02-08T00:18:10.017Z,22.20
2023-02-08T00:20:40.501Z,20.52
2023-02-08T00:23:07.971Z,23.13
2023-02-08T00:25:35.346Z,21.83
2023-02-08T00:28:04.593Z,25.67
2023-02-08T00:30:32.254Z,22.73
2023-02-08T00:33:01.376Z,30.55
2023-02-08T00:35:29.244Z,25.08
2023-02-08T00:37:56.867Z,26.95
2023-02-08T00:40:24.922Z,21.17
2023-02-08T00:42:52.068Z,26.52
2023-02-08T00:45:19.190Z,27.38
2023-02-08T00:47:46.239Z,24.48
2023-02-08T00:50:13.952Z,25.27
2023-02-08T00:52:41.123Z,30.88
2023-02-08T00:55:08.694Z,23.13
2023-02-08T00:57:36.373Z,26.77
2023-02-08T01:00:06.199Z,28.13
2023-02-08T01:02:33.822Z,22.20
2023-02-08T01:05:00.959Z,27.38
2023-02-08T01:07:27.970Z,31.30
2023-02-08T01:09:54.917Z,30.20
2023-02-08T01:12:21.909Z,22.15
2023-02-08T01:14:48.893Z,25.83
2023-02-08T01:17:16.990Z,26.02
2023-02-08T01:19:44.013Z,25.63
2023-02-08T01:22:11.172Z,27.45
2023-02-08T01:24:38.148Z,29.42
2023-02-08T01:27:05.186Z,31.42
2023-02-08T01:29:32.400Z,27.55
2023-02-08T01:31:59.493Z,27.10
2023-02-08T01:34:29.670Z,24.10
2023-02-08T01:36:57.029Z,27.75
2023-02-08T01:39:24.030Z,29.17
2023-02-08T01:41:52.054Z,31.42
2023-02-08T01:44:19.006Z,27.85
2023-02-08T01:46:51.281Z,24.98
2023-02-08T01:49:29.138Z,24.45
2023-02-08T01:52:06.725Z,27.20
2023-02-08T01:54:52.285Z,30.95
2023-02-08T01:57:21.127Z,24.83
2023-02-08T01:59:59.518Z,26.63
2023-02-08T02:02:26.856Z,26.95
2023-02-08T02:04:54.399Z,30.52
2023-02-08T02:07:26.513Z,30.13
2023-02-08T02:10:03.049Z,29.30
2023-02-08T02:12:32.584Z,28.15
2023-02-08T02:15:01.017Z,26.63
2023-02-08T02:17:28.186Z,24.17
2023-02-08T02:20:04.256Z,28.83
2023-02-08T02:22:43.868Z,29.83
2023-02-08T02:25:50.775Z,23.75
2023-02-08T02:28:23.762Z,34.50
2023-02-08T02:31:02.556Z,30.25
2023-02-08T02:34:10.360Z,28.52
2023-02-08T02:36:40.681Z,30.13
2023-02-08T02:39:42.617Z,28.50
2023-02-08T02:42:46.340Z,26.13
2023-02-08T02:45:35.622Z,24.95
2023-02-08T02:48:06.324Z,25.57
2023-02-08T02:50:49.722Z,29.83
2023-02-08T02:53:31.655Z,35.08
2023-02-08T02:56:21.570Z,34.17
2023-02-08T02:58:50.262Z,30.90
2023-02-08T03:01:30.168Z,30.92
2023-02-08T03:03:57.593Z,29.40
2023-02-08T03:07:13.745Z,37.88
2023-02-08T03:09:49.238Z,29.58
2023-02-08T03:12:34.771Z,34.30
2023-02-08T03:15:33.980Z,31.75
2023-02-08T03:18:16.320Z,32.35
2023-02-08T03:21:01.616Z,30.48
2023-02-08T03:23:34.694Z,30.73
2023-02-08T03:26:25.983Z,28.85
2023-02-08T03:29:37.339Z,32.25
2023-02-08T03:32:42.258Z,34.20
2023-02-08T03:35:20.596Z,26.58
2023-02-08T03:37:55.364Z,30.42
2023-02-08T03:40:49.709Z,25.88
2023-02-08T03:43:24.784Z,29.42
2023-02-08T03:45:57.714Z,29.10
2023-02-08T03:48:27.502Z,31.58
2023-02-08T03:50:57.150Z,28.20
2023-02-08T03:53:26.449Z,27.42
2023-02-08T03:55:59.930Z,34.05
2023-02-08T03:58:34.375Z,32.15
2023-02-08T04:01:16.714Z,33.47
2023-02-08T04:03:46.508Z,40.22
2023-02-08T04:06:13.556Z,34.03
2023-02-08T04:08:40.605Z,30.52
2023-02-08T04:11:07.676Z,30.30
2023-02-08T04:13:34.718Z,36.33
2023-02-08T04:16:01.656Z,29.25
2023-02-08T04:18:28.684Z,34.60
2023-02-08T04:20:55.866Z,39.20
2023-02-08T04:23:23.163Z,30.67
2023-02-08T04:25:50.171Z,35.90
2023-02-08T04:28:17.276Z,29.60
2023-02-08T04:30:44.431Z,37.55
2023-02-08T04:33:13.307Z,36.55
2023-02-08T04:35:40.933Z,34.33
2023-02-08T04:38:08.441Z,35.50
2023-02-08T04:40:35.929Z,45.45
2023-02-08T04:43:02.911Z,41.55
2023-02-08T04:45:32.173Z,49.25
2023-02-08T04:48:01.444Z,44.97
2023-02-08T04:50:28.687Z,35.50
2023-02-08T04:52:55.789Z,49.67
2023-02-08T04:55:22.906Z,44.13
2023-02-08T04:57:50.074Z,36.40
2023-02-08T05:00:17.717Z,53.58
2023-02-08T05:02:45.790Z,39.38
2023-02-08T05:05:12.833Z,30.30
2023-02-08T05:07:40.268Z,35.63
2023-02-08T05:10:07.949Z,32.72
2023-02-08T05:12:34.935Z,25.60
2023-02-08T05:15:02.012Z,43.30
2023-02-08T05:17:29.156Z,29.48
2023-02-08T05:19:56.123Z,39.20
2023-02-08T05:22:23.108Z,32.55
2023-02-08T05:24:50.157Z,30.73
2023-02-08T05:27:17.238Z,33.05
2023-02-08T05:29:44.292Z,34.72
2023-02-08T05:32:11.559Z,29.20
2023-02-08T05:34:39.010Z,25.80
2023-02-08T05:37:06.141Z,25.88
2023-02-08T05:39:33.280Z,30.75
2023-02-08T05:42:00.272Z,24.10
2023-02-08T05:44:27.343Z,27.38
2023-02-08T05:46:54.395Z,25.60
2023-02-08T05:49:21.856Z,20.50
2023-02-08T05:51:50.392Z,27.15
2023-02-08T05:54:18.257Z,32.88
2023-02-08T05:56:45.546Z,30.52
2023-02-08T05:59:12.529Z,29.75
2023-02-08T06:01:39.701Z,20.63
2023-02-08T06:04:06.786Z,31.48
2023-02-08T06:06:33.976Z,30.45
2023-02-08T06:09:01.240Z,39.83
2023-02-08T06:11:28.237Z,29.65
2023-02-08T06:13:55.694Z,43.35
2023-02-08T06:16:22.714Z,33.80
2023-02-08T06:18:49.762Z,32.75
2023-02-08T06:21:16.758Z,41.40
2023-02-08T06:23:43.868Z,32.80
2023-02-08T06:26:10.837Z,27.42
2023-02-08T06:28:37.918Z,38.35
2023-02-08T06:31:05.022Z,47.38
2023-02-08T06:33:32.092Z,29.55
2023-02-08T06:35:59.119Z,31.77
2023-02-08T06:38:26.346Z,38.97
2023-02-08T06:40:53.362Z,33.38
2023-02-08T06:43:20.772Z,24.30
2023-02-08T06:45:48.139Z,42.92
2023-02-08T06:48:15.770Z,26.95
2023-02-08T06:50:43.262Z,28.90
2023-02-08T06:53:10.355Z,27.85
2023-02-08T06:55:37.419Z,27.00
2023-02-08T06:58:04.402Z,24.85
2023-02-08T07:00:31.551Z,25.08
2023-02-08T07:03:00.970Z,25.50
2023-02-08T07:05:28.316Z,17.93
2023-02-08T07:07:55.381Z,29.55
2023-02-08T07:10:22.373Z,29.98
2023-02-08T07:12:49.489Z,30.33
2023-02-08T07:15:16.583Z,31.17
2023-02-08T07:17:43.710Z,28.65
2023-02-08T07:20:11.711Z,31.33
2023-02-08T07:22:39.393Z,30.92
2023-02-08T07:25:07.757Z,29.30
2023-02-08T07:27:35.060Z,22.85
2023-02-08T07:30:02.216Z,30.65
2023-02-08T07:32:29.240Z,28.77
2023-02-08T07:34:56.261Z,26.63
2023-02-08T07:37:23.246Z,31.05
2023-02-08T07:39:50.211Z,25.27
2023-02-08T07:42:17.275Z,32.75
2023-02-08T07:44:54.879Z,22.63
2023-02-08T07:47:22.037Z,28.73
2023-02-08T07:49:49.159Z,22.23
2023-02-08T07:52:16.146Z,35.88
2023-02-08T07:54:43.126Z,27.13
2023-02-08T07:57:10.307Z,31.20
2023-02-08T07:59:37.264Z,24.60
2023-02-08T08:02:04.329Z,20.95
2023-02-08T08:04:31.612Z,24.67
2023-02-08T08:06:58.675Z,26.33
2023-02-08T08:09:25.762Z,27.80
2023-02-08T08:11:52.806Z,30.85
2023-02-08T08:14:19.792Z,28.50
2023-02-08T08:16:46.845Z,16.40
2023-02-08T08:19:13.882Z,28.35
2023-02-08T08:21:41.478Z,26.90
2023-02-08T08:24:08.567Z,24.00
2023-02-08T08:26:35.633Z,29.38
2023-02-08T08:29:03.133Z,25.98
2023-02-08T08:31:31.270Z,20.77
2023-02-08T08:33:58.381Z,27.38
2023-02-08T08:36:25.937Z,23.25
2023-02-08T08:38:53.112Z,20.13
2023-02-08T08:41:22.519Z,23.10
2023-02-08T08:43:50.099Z,27.57
2023-02-08T08:46:18.032Z,26.10
2023-02-08T08:48:45.947Z,23.83
2023-02-08T08:51:14.220Z,21.80
2023-02-08T08:53:41.428Z,26.17
2023-02-08T08:56:08.660Z,22.50
2023-02-08T08:58:35.705Z,24.67
2023-02-08T09:01:03.161Z,23.38
2023-02-08T09:03:30.399Z,20.20
2023-02-08T09:05:57.709Z,28.48
2023-02-08T09:08:24.868Z,24.83
2023-02-08T09:10:51.854Z,21.05
2023-02-08T09:13:20.176Z,19.88
2023-02-08T09:15:48.712Z,22.42
2023-02-08T09:18:16.500Z,23.55
2023-02-08T09:20:43.984Z,24.15
2023-02-08T09:23:11.605Z,26.00
2023-02-08T09:25:38.656Z,27.25
2023-02-08T09:28:05.887Z,28.35
2023-02-08T09:30:33.703Z,22.20
2023-02-08T09:33:00.699Z,23.88
2023-02-08T09:35:27.724Z,19.58
2023-02-08T09:37:57.917Z,18.67
2023-02-08T09:40:29.958Z,23.73
2023-02-08T09:43:29.606Z,18.70
2023-02-08T09:46:08.911Z,17.88
2023-02-08T09:48:39.040Z,28.27
2023-02-08T09:51:22.193Z,22.60
2023-02-08T09:53:56.242Z,20.08
2023-02-08T09:56:30.198Z,22.52
2023-02-08T09:58:58.874Z,19.92
2023-02-08T10:01:32.272Z,25.77
2023-02-08T10:04:18.490Z,26.42
2023-02-08T10:06:45.936Z,20.38
2023-02-08T10:09:15.867Z,16.88
2023-02-08T10:11:49.894Z,24.83
2023-02-08T10:14:21.453Z,19.13
2023-02-08T10:17:01.449Z,20.77
2023-02-08T10:19:38.383Z,17.73
2023-02-08T10:22:33.533Z,23.77
2023-02-08T10:25:15.782Z,25.38
2023-02-08T10:28:07.719Z,22.10
2023-02-08T10:31:12.194Z,22.70
2023-02-08T10:34:12.003Z,19.92
2023-02-08T10:36:43.106Z,20.77
2023-02-08T10:39:28.283Z,21.92
2023-02-08T10:41:55.869Z,27.95
2023-02-08T10:44:45.770Z,22.27
2023-02-08T10:47:38.503Z,20.65
2023-02-08T10:50:08.354Z,18.98
2023-02-08T10:52:35.710Z,20.38
2023-02-08T10:55:03.233Z,20.48
2023-02-08T10:57:34.961Z,22.52
2023-02-08T11:00:07.940Z,17.60
2023-02-08T11:02:40.254Z,13.45
2023-02-08T11:05:12.672Z,25.05
2023-02-08T11:07:40.333Z,23.02
2023-02-08T11:10:14.762Z,20.40
2023-02-08T11:12:43.762Z,21.00
2023-02-08T11:15:31.449Z,20.63
2023-02-08T11:18:01.912Z,15.90
2023-02-08T11:23:17.526Z,14.10
2023-02-08T11:28:30.471Z,16.30
2023-02-08T11:31:02.958Z,21.35
2023-02-08T11:33:30.873Z,20.35
2023-02-08T11:36:03.013Z,18.52
2023-02-08T11:38:31.435Z,18.77
2023-02-08T11:41:01.779Z,21.67
2023-02-08T11:43:32.373Z,18.70
2023-02-08T11:48:49.102Z,23.85
2023-02-08T11:51:25.329Z,16.27
2023-02-08T11:53:54.393Z,17.73
2023-02-08T11:56:23.774Z,17.10
2023-02-08T11:59:06.874Z,19.48
2023-02-08T12:01:37.315Z,21.08
2023-02-08T12:04:10.944Z,15.27
2023-02-08T12:07:11.126Z,19.13
2023-02-08T12:09:50.380Z,26.08
2023-02-08T12:12:32.753Z,19.42
2023-02-08T12:15:11.790Z,15.63
2023-02-08T12:18:00.937Z,22.05
2023-02-08T12:20:31.049Z,20.45
2023-02-08T12:23:10.512Z,17.83
2023-02-08T12:26:09.471Z,15.88
2023-02-08T12:28:49.818Z,19.95
2023-02-08T12:34:02.254Z,19.48
2023-02-08T12:36:43.652Z,20.45
2023-02-08T12:40:10.650Z,13.63
2023-02-08T12:42:53.390Z,22.67
2023-02-08T12:45:38.542Z,13.25
2023-02-08T12:48:24.110Z,19.38
2023-02-08T12:51:16.290Z,19.30
2023-02-08T12:53:53.042Z,24.98
2023-02-08T12:56:26.502Z,19.00
2023-02-08T12:59:11.727Z,14.80
2023-02-08T13:01:51.456Z,13.63
2023-02-08T13:04:24.088Z,20.05
2023-02-08T13:06:59.556Z,14.48
2023-02-08T13:09:35.236Z,22.75
2023-02-08T13:12:09.300Z,13.40
2023-02-08T13:14:42.129Z,18.60
2023-02-08T13:17:21.528Z,21.27
2023-02-08T13:20:00.197Z,19.77
2023-02-08T13:22:31.982Z,19.25
2023-02-08T13:25:08.457Z,23.50
2023-02-08T13:27:36.364Z,18.73
2023-02-08T13:30:05.494Z,18.98
2023-02-08T13:32:51.880Z,18.27
2023-02-08T13:35:28.633Z,16.15
2023-02-08T13:38:03.659Z,14.05
2023-02-08T13:40:34.422Z,17.80
2023-02-08T13:43:09.595Z,13.85
2023-02-08T13:45:42.467Z,17.77
2023-02-08T13:48:13.137Z,15.07
2023-02-08T13:50:53.044Z,19.05
2023-02-08T13:53:40.980Z,16.58
2023-02-08T13:56:13.434Z,17.00
2023-02-08T13:58:46.523Z,18.33
2023-02-08T14:01:24.573Z,18.67
2023-02-08T14:04:10.296Z,22.65
2023-02-08T14:06:44.624Z,19.75
2023-02-08T14:09:28.729Z,16.40
2023-02-08T14:12:23.159Z,24.17
2023-02-08T14:15:23.977Z,15.65
2023-02-08T14:17:59.901Z,17.70
2023-02-08T14:20:40.151Z,18.05
2023-02-08T14:23:30.307Z,13.75
2023-02-08T14:26:08.336Z,16.80
2023-02-08T14:28:40.464Z,17.02
2023-02-08T14:31:10.919Z,17.95
2023-02-08T14:33:41.725Z,20.42
2023-02-08T14:36:29.773Z,21.35
2023-02-08T14:39:18.504Z,17.48
2023-02-08T14:41:45.520Z,15.35
2023-02-08T14:44:46.759Z,17.73
2023-02-08T14:47:35.852Z,16.08
2023-02-08T14:50:20.260Z,16.48
2023-02-08T14:53:13.254Z,21.88
2023-02-08T14:56:06.699Z,17.77
2023-02-08T14:58:48.289Z,17.08
2023-02-08T15:01:33.207Z,14.73
2023-02-08T15:04:02.698Z,11.95
2023-02-08T15:06:39.338Z,18.73
2023-02-08T15:09:25.320Z,17.40
2023-02-08T15:12:16.770Z,14.80
2023-02-08T15:14:44.815Z,16.00
2023-02-08T15:17:43.966Z,15.05
2023-02-08T15:20:26.694Z,9.82
2023-02-08T15:23:18.204Z,16.33
2023-02-08T15:25:54.100Z,13.10
2023-02-08T15:28:23.181Z,15.85
2023-02-08T15:30:58.842Z,12.32
2023-02-08T15:33:26.506Z,15.88
2023-02-08T15:36:05.164Z,14.80
2023-02-08T15:38:34.200Z,11.63
2023-02-08T15:41:06.658Z,14.23
2023-02-08T15:43:34.566Z,17.17
2023-02-08T15:46:26.251Z,12.68
2023-02-08T15:48:56.949Z,14.90
2023-02-08T15:51:25.149Z,16.95
2023-02-08T15:53:54.988Z,12.77
2023-02-08T15:56:41.307Z,22.35
2023-02-08T15:59:21.460Z,16.30
2023-02-08T16:01:49.442Z,17.98
2023-02-08T16:04:17.074Z,14.93
2023-02-08T16:06:51.788Z,13.90
2023-02-08T16:09:23.104Z,11.88
2023-02-08T16:11:50.590Z,16.75
2023-02-08T16:14:24.766Z,16.55
2023-02-08T16:16:57.113Z,13.90
2023-02-08T16:19:28.401Z,15.00
2023-02-08T16:22:14.890Z,22.33
2023-02-08T16:24:41.872Z,12.70
2023-02-08T16:27:28.156Z,19.55
2023-02-08T16:29:55.425Z,14.52
2023-02-08T16:32:30.743Z,17.70
2023-02-08T16:34:58.506Z,12.10
2023-02-08T16:37:33.877Z,12.30
2023-02-08T16:40:02.980Z,12.32
2023-02-08T16:42:42.798Z,17.10
2023-02-08T16:45:14.667Z,12.18
2023-02-08T16:48:18.532Z,12.32
2023-02-08T16:50:46.237Z,15.93
2023-02-08T16:53:13.386Z,16.20
2023-02-08T16:55:40.471Z,16.20
2023-02-08T16:58:14.983Z,16.63
2023-02-08T17:00:42.230Z,16.00
2023-02-08T17:03:09.498Z,13.52
2023-02-08T17:05:39.270Z,13.32
2023-02-08T17:08:10.031Z,11.35
2023-02-08T17:10:38.276Z,13.38
2023-02-08T17:13:19.995Z,13.65
2023-02-08T17:15:50.656Z,15.43
2023-02-08T17:18:17.894Z,15.07
2023-02-08T17:20:45.471Z,11.98
2023-02-08T17:23:12.916Z,12.85
2023-02-08T17:25:40.035Z,12.75
2023-02-08T17:28:18.444Z,13.52
2023-02-08T17:30:46.762Z,13.85
2023-02-08T17:33:19.744Z,13.43
2023-02-08T17:35:49.427Z,13.80
2023-02-08T17:38:17.239Z,9.18
2023-02-08T17:40:44.622Z,13.93
2023-02-08T17:43:13.048Z,11.20
2023-02-08T17:45:41.635Z,11.63
2023-02-08T17:48:09.242Z,14.20
2023-02-08T17:50:36.724Z,12.25
2023-02-08T17:53:04.181Z,14.50
2023-02-08T17:55:31.794Z,14.68
2023-02-08T17:57:58.893Z,15.45
2023-02-08T18:00:26.360Z,12.02
2023-02-08T18:02:55.349Z,15.80
2023-02-08T18:05:25.995Z,10.32
2023-02-08T18:07:54.802Z,12.68
2023-02-08T18:10:23.070Z,12.15
2023-02-08T18:12:50.395Z,12.05
2023-02-08T18:15:20.813Z,14.30
2023-02-08T18:20:16.055Z,11.10
2023-02-08T18:22:44.113Z,11.85
2023-02-08T18:25:12.316Z,10.55
2023-02-08T18:27:39.635Z,9.48
2023-02-08T18:30:07.600Z,12.00
2023-02-08T18:32:34.652Z,11.73
2023-02-08T18:35:03.759Z,10.80
2023-02-08T18:37:32.309Z,12.63
2023-02-08T18:40:00.119Z,14.52
2023-02-08T18:42:27.374Z,13.13
2023-02-08T18:44:54.610Z,10.90
2023-02-08T18:47:21.693Z,18.05
2023-02-08T18:49:53.709Z,12.38
2023-02-08T18:52:23.709Z,14.02
2023-02-08T18:54:53.721Z,12.63
2023-02-08T18:57:20.908Z,16.90
2023-02-08T18:59:47.990Z,13.57
2023-02-08T19:02:21.276Z,15.43
2023-02-08T19:04:48.757Z,13.73
2023-02-08T19:07:16.368Z,13.93
2023-02-08T19:09:44.260Z,10.23
2023-02-08T19:12:15.655Z,10.02
2023-02-08T19:14:43.735Z,14.18
2023-02-08T19:17:12.416Z,12.88
2023-02-08T19:19:41.526Z,15.75
2023-02-08T19:22:08.546Z,15.77
2023-02-08T19:24:35.630Z,14.65
2023-02-08T19:27:02.958Z,12.30
2023-02-08T19:29:30.036Z,12.18
2023-02-08T19:31:58.342Z,11.50
2023-02-08T19:34:26.098Z,10.73
2023-02-08T19:36:54.809Z,10.77
2023-02-08T19:39:25.350Z,13.93
2023-02-08T19:41:58.730Z,14.15
2023-02-08T19:44:28.384Z,13.23
2023-02-08T19:46:56.968Z,14.18
2023-02-08T19:49:26.069Z,10.20
2023-02-08T19:51:53.870Z,9.20
2023-02-08T19:54:21.506Z,11.77
2023-02-08T19:56:50.481Z,12.77
2023-02-08T19:59:21.546Z,13.13
2023-02-08T20:01:48.814Z,12.55
2023-02-08T20:04:16.324Z,15.73
2023-02-08T20:06:45.099Z,13.73
2023-02-08T20:09:15.300Z,13.35
2023-02-08T20:14:25.543Z,14.60
2023-02-08T20:16:52.778Z,12.40
2023-02-08T20:19:19.901Z,12.07
2023-02-08T20:21:46.894Z,7.80
2023-02-08T20:24:14.093Z,10.30
2023-02-08T20:26:44.994Z,10.88
2023-02-08T20:29:12.908Z,17.90
2023-02-08T20:31:42.736Z,11.85
2023-02-08T20:34:14.096Z,11.15
2023-02-08T20:36:49.523Z,10.45
2023-02-08T20:39:20.967Z,11.23
2023-02-08T20:41:48.215Z,9.70
2023-02-08T20:44:18.104Z,9.93
2023-02-08T20:46:45.270Z,11.70
2023-02-08T20:49:15.403Z,12.27
2023-02-08T20:51:43.509Z,8.55
2023-02-08T20:54:10.941Z,9.80
2023-02-08T20:56:38.982Z,12.25
2023-02-08T20:59:08.707Z,9.25
2023-02-08T21:01:37.063Z,12.85
2023-02-08T21:04:04.859Z,9.82
2023-02-08T21:06:34.202Z,9.45
2023-02-08T21:09:08.752Z,13.93
2023-02-08T21:11:36.114Z,28.77
2023-02-08T21:14:03.670Z,104.18
2023-02-08T21:16:31.570Z,24.33
2023-02-08T21:18:59.093Z,10.73
2023-02-08T21:21:26.472Z,13.15
2023-02-08T21:23:53.632Z,13.25
2023-02-08T21:26:21.476Z,12.20
2023-02-08T21:28:52.207Z,10.13
2023-02-08T21:31:22.321Z,8.23
2023-02-08T21:33:51.282Z,14.82
2023-02-08T21:36:21.355Z,11.13
2023-02-08T21:38:49.049Z,10.95
2023-02-08T21:41:20.715Z,12.02
2023-02-08T21:43:49.149Z,12.88
2023-02-08T21:46:17.229Z,9.50
2023-02-08T21:49:03.313Z,9.07
2023-02-08T21:51:49.291Z,12.30
2023-02-08T21:54:38.409Z,8.40
2023-02-08T21:57:19.171Z,12.15
2023-02-08T21:59:51.417Z,11.23
2023-02-08T22:02:25.960Z,16.27
2023-02-08T22:05:17.233Z,9.45
2023-02-08T22:07:47.182Z,8.80
2023-02-08T22:10:16.371Z,9.90
2023-02-08T22:12:43.722Z,12.10
2023-02-08T22:15:16.304Z,10.27
2023-02-08T22:17:43.923Z,9.45
2023-02-08T22:20:12.264Z,14.02
2023-02-08T22:22:39.401Z,9.82
2023-02-08T22:25:07.208Z,8.00
2023-02-08T22:27:34.229Z,12.88
2023-02-08T22:30:01.347Z,12.07
2023-02-08T22:32:28.527Z,11.40
2023-02-08T22:34:55.599Z,18.10
2023-02-08T22:37:22.817Z,10.32
2023-02-08T22:39:49.866Z,7.68
2023-02-08T22:42:17.290Z,10.55
2023-02-08T22:44:44.810Z,12.57
2023-02-08T22:47:13.376Z,8.02
2023-02-08T22:49:40.509Z,8.02
2023-02-08T22:52:08.892Z,8.38
2023-02-08T22:54:36.341Z,15.50
2023-02-08T22:57:04.046Z,10.25
2023-02-08T22:59:31.047Z,9.25
2023-02-08T23:01:58.423Z,14.18
2023-02-08T23:04:26.318Z,16.13
2023-02-08T23:06:53.963Z,14.68
2023-02-08T23:09:21.299Z,21.17
2023-02-08T23:11:48.390Z,11.27
2023-02-08T23:14:16.073Z,10.93
2023-02-08T23:16:43.262Z,7.35
2023-02-08T23:19:18.245Z,10.30
2023-02-08T23:21:45.801Z,11.52
2023-02-08T23:24:13.189Z,11.40
2023-02-08T23:29:36.369Z,11.15
2023-02-08T23:32:03.779Z,11.18
2023-02-08T23:34:30.899Z,16.60
2023-02-08T23:36:58.026Z,11.27
2023-02-08T23:39:25.344Z,11.05
2023-02-08T23:41:55.841Z,11.38
2023-02-08T23:46:50.920Z,11.02
2023-02-08T23:49:18.011Z,14.27
2023-02-08T23:51:45.159Z,8.38
2023-02-08T23:54:12.625Z,12.00
2023-02-08T23:56:40.884Z,9.23
2023-02-08T23:59:09.958Z,9.30
